Time;durP1;ratioP1;P1;durP2;ratioP2;P2;SDS_P1;SDS_P2;PMS_P1;PMS_P2;Temp;Humidity;BMP_temperature;BMP_pressure;BME280_temperature;BME280_humidity;BME280_pressure;Samples;Min_cycle;Max_cycle;Signal;HPM_P1;HPM_P2
2021/08/29 00:01:26;;;;;;;3.65;2.65;;;;;;;;;;4991154;28;20058;-86
2021/08/29 00:03:53;;;;;;;4.25;2.70;;;;;;;;;;4979314;28;20050;-86
2021/08/29 00:06:20;;;;;;;4.32;2.40;;;;;;;;;;4978737;28;20083;-86
2021/08/29 00:08:46;;;;;;;5.03;3.03;;;;;;;;;;4978538;28;20057;-86
2021/08/29 00:11:19;;;;;;;4.90;2.40;;;;;;;;;;4979764;28;20520;-86
2021/08/29 00:13:48;;;;;;;4.30;2.63;;;;;;;;;;4979917;28;20412;-86
2021/08/29 00:16:31;;;;;;;3.72;2.45;;;;;;;;;;4977799;28;20102;-86
2021/08/29 00:18:58;;;;;;;4.70;2.20;;;;;;;;;;4975127;28;20053;-86
2021/08/29 00:21:38;;;;;;;4.10;2.45;;;;;;;;;;4974922;28;20063;-86
2021/08/29 00:24:11;;;;;;;3.95;2.53;;;;;;;;;;4979952;28;20054;-84
2021/08/29 00:26:41;;;;;;;4.05;2.63;;;;;;;;;;4994458;28;20051;-83
2021/08/29 00:29:14;;;;;;;4.22;2.25;;;;;;;;;;4991233;28;20047;-86
2021/08/29 00:31:43;;;;;;;3.63;2.28;;;;;;;;;;4981124;28;20055;-86
2021/08/29 00:37:17;;;;;;;3.70;2.22;;;;;;;;;;4961053;28;20047;-85
2021/08/29 00:39:52;;;;;;;4.55;2.53;;;;;;;;;;4995907;28;20066;-85
2021/08/29 00:42:25;;;;;;;4.00;2.70;;;;;;;;;;4982891;28;20051;-84
2021/08/29 00:44:59;;;;;;;3.78;2.33;;;;;;;;;;4980522;28;20054;-84
2021/08/29 00:47:40;;;;;;;4.65;2.15;;;;;;;;;;4983383;28;20057;-86
2021/08/29 00:50:39;;;;;;;5.15;2.80;;;;;;;;;;4984411;28;20050;-86
2021/08/29 00:53:15;;;;;;;5.03;2.35;;;;;;;;;;4971122;28;20047;-86
2021/08/29 00:58:29;;;;;;;3.50;2.00;;;;;;;;;;4975314;28;20055;-86
2021/08/29 01:01:09;;;;;;;4.22;2.38;;;;;;;;;;4982666;28;20101;-85
2021/08/29 01:03:43;;;;;;;4.65;2.40;;;;;;;;;;4981492;28;20055;-86
2021/08/29 01:06:22;;;;;;;3.83;2.20;;;;;;;;;;4982834;28;20134;-85
2021/08/29 01:09:14;;;;;;;4.53;2.30;;;;;;;;;;4983570;28;20059;-85
2021/08/29 01:11:58;;;;;;;3.45;2.20;;;;;;;;;;4986194;28;20059;-85
2021/08/29 01:14:30;;;;;;;4.10;2.30;;;;;;;;;;4981218;28;20117;-86
2021/08/29 01:17:05;;;;;;;3.20;1.83;;;;;;;;;;4981903;28;20051;-85
2021/08/29 01:19:49;;;;;;;3.63;2.08;;;;;;;;;;4983278;28;20050;-86
2021/08/29 01:22:21;;;;;;;3.45;2.15;;;;;;;;;;4982217;28;20046;-86
2021/08/29 01:25:29;;;;;;;3.47;2.20;;;;;;;;;;4981440;28;20051;-86
2021/08/29 01:28:03;;;;;;;3.38;2.17;;;;;;;;;;4997418;28;20470;-86
2021/08/29 01:30:31;;;;;;;4.47;2.38;;;;;;;;;;5000732;28;20051;-86
2021/08/29 01:33:00;;;;;;;4.45;2.50;;;;;;;;;;4999006;28;20093;-85
2021/08/29 01:35:37;;;;;;;3.95;2.20;;;;;;;;;;4998608;28;20088;-86
2021/08/29 01:38:12;;;;;;;4.05;2.42;;;;;;;;;;5001725;28;20054;-86
2021/08/29 01:40:47;;;;;;;3.67;2.20;;;;;;;;;;5000326;28;20126;-86
2021/08/29 01:43:18;;;;;;;4.20;2.55;;;;;;;;;;5001498;28;20138;-86
2021/08/29 01:45:51;;;;;;;4.47;2.60;;;;;;;;;;4997242;28;20532;-86
2021/08/29 01:48:19;;;;;;;3.90;2.53;;;;;;;;;;4998355;28;20054;-86
2021/08/29 01:50:50;;;;;;;3.55;2.13;;;;;;;;;;4979105;28;20046;-86
2021/08/29 01:53:18;;;;;;;3.95;2.40;;;;;;;;;;4996398;28;20050;-86
2021/08/29 01:55:49;;;;;;;6.28;2.42;;;;;;;;;;4996092;28;20053;-86
2021/08/29 01:58:17;;;;;;;3.97;2.35;;;;;;;;;;4996298;28;20154;-86
2021/08/29 02:00:58;;;;;;;5.28;2.40;;;;;;;;;;4996233;28;20050;-86
2021/08/29 02:03:32;;;;;;;3.47;2.30;;;;;;;;;;4980917;28;20051;-86
2021/08/29 02:06:11;;;;;;;4.57;2.40;;;;;;;;;;4977291;28;20047;-86
2021/08/29 02:08:52;;;;;;;3.65;2.30;;;;;;;;;;4977887;28;20047;-86
2021/08/29 02:11:24;;;;;;;4.45;2.50;;;;;;;;;;4977105;28;20133;-86
2021/08/29 02:14:10;;;;;;;3.63;1.95;;;;;;;;;;4976019;28;20053;-86
2021/08/29 02:16:44;;;;;;;4.40;2.30;;;;;;;;;;4975767;28;20053;-86
2021/08/29 02:19:29;;;;;;;3.20;1.98;;;;;;;;;;4976446;28;20496;-85
2021/08/29 02:22:06;;;;;;;3.35;1.98;;;;;;;;;;4976082;28;20492;-86
2021/08/29 02:24:44;;;;;;;3.72;2.10;;;;;;;;;;4975798;28;20085;-86
2021/08/29 02:27:21;;;;;;;3.10;1.90;;;;;;;;;;4975618;28;20065;-86
2021/08/29 02:29:59;;;;;;;3.72;2.17;;;;;;;;;;4976158;28;20062;-86
2021/08/29 02:32:31;;;;;;;4.38;2.10;;;;;;;;;;4975711;28;20062;-86
2021/08/29 02:34:58;;;;;;;3.83;2.22;;;;;;;;;;4975496;28;20385;-86
2021/08/29 02:37:31;;;;;;;3.03;1.90;;;;;;;;;;4975777;28;20078;-86
2021/08/29 02:40:01;;;;;;;3.53;2.05;;;;;;;;;;4976364;28;20089;-86
2021/08/29 02:42:33;;;;;;;4.43;2.20;;;;;;;;;;4975579;28;20055;-86
2021/08/29 02:45:14;;;;;;;3.60;1.90;;;;;;;;;;4975326;28;20046;-86
2021/08/29 02:47:42;;;;;;;2.78;1.95;;;;;;;;;;4975935;28;20043;-86
2021/08/29 02:50:12;;;;;;;3.70;2.20;;;;;;;;;;4987982;28;20051;-86
2021/08/29 02:52:51;;;;;;;3.42;1.90;;;;;;;;;;4999887;28;20039;-86
2021/08/29 02:55:43;;;;;;;3.60;2.03;;;;;;;;;;4992337;28;20491;-86
2021/08/29 02:58:23;;;;;;;3.38;2.03;;;;;;;;;;4991377;28;20046;-86
2021/08/29 03:01:03;;;;;;;3.13;1.70;;;;;;;;;;4992010;28;20050;-86
2021/08/29 03:03:37;;;;;;;3.47;1.73;;;;;;;;;;4989099;28;20054;-86
2021/08/29 03:06:09;;;;;;;3.63;2.10;;;;;;;;;;4976315;28;20047;-86
2021/08/29 03:08:45;;;;;;;3.47;2.08;;;;;;;;;;4975920;28;20058;-86
2021/08/29 03:11:15;;;;;;;3.78;2.20;;;;;;;;;;4975777;28;20055;-85
2021/08/29 03:13:50;;;;;;;3.10;1.80;;;;;;;;;;4975961;28;20054;-86
2021/08/29 03:16:22;;;;;;;3.03;1.95;;;;;;;;;;4975262;28;20135;-86
2021/08/29 03:19:06;;;;;;;4.18;2.15;;;;;;;;;;4975623;28;20058;-86
2021/08/29 03:21:35;;;;;;;4.20;2.38;;;;;;;;;;4975522;28;20054;-85
2021/08/29 03:24:08;;;;;;;3.80;2.17;;;;;;;;;;4976095;28;20046;-86
2021/08/29 03:26:40;;;;;;;4.20;2.58;;;;;;;;;;4975409;28;20078;-86
2021/08/29 03:29:08;;;;;;;3.65;2.05;;;;;;;;;;4976178;28;20055;-86
2021/08/29 03:31:37;;;;;;;4.43;2.20;;;;;;;;;;4975349;28;20046;-86
2021/08/29 03:34:08;;;;;;;3.60;2.30;;;;;;;;;;4975270;28;20122;-86
2021/08/29 03:36:36;;;;;;;;;;;;;;;;;;4975390;28;20288;-86
2021/08/29 03:39:07;;;;;;;4.13;2.50;;;;;;;;;;4975347;28;20403;-86
2021/08/29 03:41:39;;;;;;;3.65;2.20;;;;;;;;;;4982851;28;20559;-86
2021/08/29 03:44:09;;;;;;;4.22;2.53;;;;;;;;;;4983627;28;20052;-86
2021/08/29 03:46:52;;;;;;;4.20;2.45;;;;;;;;;;4994356;28;20051;-85
2021/08/29 03:49:27;;;;;;;4.82;2.65;;;;;;;;;;4994935;28;20057;-86
2021/08/29 03:51:55;;;;;;;4.93;2.72;;;;;;;;;;4994257;28;20054;-86
2021/08/29 03:54:24;;;;;;;5.35;3.50;;;;;;;;;;4976772;28;20058;-86
2021/08/29 03:56:53;;;;;;;4.68;2.80;;;;;;;;;;4975121;28;20076;-86
2021/08/29 03:59:23;;;;;;;4.85;2.72;;;;;;;;;;4975261;28;20524;-86
2021/08/29 04:01:51;;;;;;;5.50;3.10;;;;;;;;;;4974765;28;20142;-86
2021/08/29 04:04:32;;;;;;;5.18;3.20;;;;;;;;;;4974957;28;20085;-86
2021/08/29 04:07:11;;;;;;;4.25;2.80;;;;;;;;;;4974715;28;20101;-86
2021/08/29 04:09:52;;;;;;;4.50;2.78;;;;;;;;;;4974536;28;20054;-86
2021/08/29 04:12:34;;;;;;;4.10;2.50;;;;;;;;;;4975563;28;20050;-86
2021/08/29 04:15:05;;;;;;;4.63;2.83;;;;;;;;;;4994154;28;20081;-86
2021/08/29 04:17:40;;;;;;;;;;;;;;;;;;5000282;28;20050;-87
2021/08/29 04:20:14;;;;;;;4.45;2.80;;;;;;;;;;5014786;28;19945;-86
2021/08/29 04:22:49;;;;;;;5.65;3.55;;;;;;;;;;5005433;28;20081;-86
2021/08/29 04:25:25;;;;;;;5.38;3.65;;;;;;;;;;5009059;28;20054;-86
2021/08/29 04:27:52;;;;;;;5.63;3.47;;;;;;;;;;5011822;28;20058;-86
2021/08/29 04:33:09;;;;;;;4.95;3.40;;;;;;;;;;4991676;28;20055;-86
2021/08/29 04:35:41;;;;;;;5.88;3.90;;;;;;;;;;4993557;28;20407;-86
2021/08/29 04:38:25;;;;;;;6.28;4.07;;;;;;;;;;4994987;28;20397;-86
2021/08/29 04:40:52;;;;;;;7.82;4.63;;;;;;;;;;5005933;28;20054;-86
2021/08/29 04:43:37;;;;;;;8.35;4.28;;;;;;;;;;5005344;28;20042;-86
2021/08/29 04:46:14;;;;;;;5.55;3.63;;;;;;;;;;5007361;28;20061;-86
2021/08/29 04:48:46;;;;;;;6.47;4.40;;;;;;;;;;5003462;28;20054;-86
2021/08/29 04:54:10;;;;;;;6.53;4.50;;;;;;;;;;4985633;28;20069;-87
2021/08/29 04:56:36;;;;;;;7.78;4.63;;;;;;;;;;4994115;28;20526;-87
2021/08/29 04:59:13;;;;;;;6.47;4.43;;;;;;;;;;4995022;28;20054;-86
2021/08/29 05:01:41;;;;;;;6.65;4.38;;;;;;;;;;4993321;28;20066;-86
2021/08/29 05:04:12;;;;;;;6.75;4.45;;;;;;;;;;4974457;28;20051;-85
2021/08/29 05:06:47;;;;;;;6.88;4.93;;;;;;;;;;4974072;28;20063;-86
2021/08/29 05:09:22;;;;;;;6.10;4.55;;;;;;;;;;4974586;28;20531;-86
2021/08/29 05:12:01;;;;;;;8.10;5.18;;;;;;;;;;4974194;28;20137;-85
2021/08/29 05:14:38;;;;;;;7.28;4.88;;;;;;;;;;4992011;28;20133;-86
2021/08/29 05:17:08;;;;;;;7.70;5.40;;;;;;;;;;4992904;28;20069;-86
2021/08/29 05:19:35;;;;;;;8.02;5.65;;;;;;;;;;5001932;28;20031;-86
2021/08/29 05:22:15;;;;;;;7.40;4.97;;;;;;;;;;5019402;28;20147;-85
2021/08/29 05:24:41;;;;;;;7.30;5.05;;;;;;;;;;5001337;28;20397;-86
2021/08/29 05:27:08;;;;;;;8.45;5.40;;;;;;;;;;4998219;28;20050;-86
2021/08/29 05:29:35;;;;;;;7.90;5.63;;;;;;;;;;4997092;28;20050;-86
2021/08/29 05:32:03;;;;;;;9.02;5.68;;;;;;;;;;4997722;28;20482;-85
2021/08/29 05:34:37;;;;;;;8.48;5.53;;;;;;;;;;4997644;28;20042;-86
2021/08/29 05:37:05;;;;;;;8.95;5.95;;;;;;;;;;4996445;28;20046;-86
2021/08/29 05:39:45;;;;;;;9.85;5.90;;;;;;;;;;4997085;28;20050;-86
2021/08/29 05:42:19;;;;;;;7.38;5.13;;;;;;;;;;4996939;28;20050;-86
2021/08/29 05:44:48;;;;;;;9.32;6.07;;;;;;;;;;4996841;28;20112;-85
2021/08/29 05:47:34;;;;;;;8.48;6.53;;;;;;;;;;4996502;28;20058;-86
2021/08/29 05:50:11;;;;;;;9.45;6.28;;;;;;;;;;4996725;28;20104;-86
2021/08/29 05:52:38;;;;;;;9.35;5.47;;;;;;;;;;4996307;28;20455;-86
2021/08/29 05:55:16;;;;;;;8.30;5.45;;;;;;;;;;4995486;28;20050;-86
2021/08/29 05:57:45;;;;;;;9.45;6.53;;;;;;;;;;4996475;28;20046;-86
2021/08/29 06:00:15;;;;;;;8.07;5.63;;;;;;;;;;4996403;28;20054;-85
2021/08/29 06:02:47;;;;;;;8.20;5.57;;;;;;;;;;4986444;28;20098;-86
2021/08/29 06:05:15;;;;;;;8.65;5.22;;;;;;;;;;4975701;28;20138;-86
2021/08/29 06:07:43;;;;;;;8.68;5.82;;;;;;;;;;4976743;28;20515;-86
2021/08/29 06:10:17;;;;;;;8.10;5.60;;;;;;;;;;4979508;28;20463;-86
2021/08/29 06:12:45;;;;;;;7.85;5.70;;;;;;;;;;4980731;28;20050;-86
2021/08/29 06:15:17;;;;;;;8.50;5.85;;;;;;;;;;4995707;28;20050;-86
2021/08/29 06:17:44;;;;;;;9.50;6.55;;;;;;;;;;4996555;28;20203;-86
2021/08/29 06:20:19;;;;;;;7.55;5.03;;;;;;;;;;4995504;28;20109;-86
2021/08/29 06:25:43;;;;;;;9.20;5.70;;;;;;;;;;4993127;28;20433;-86
2021/08/29 06:28:12;;;;;;;8.52;5.60;;;;;;;;;;4995557;28;20124;-86
2021/08/29 06:30:49;;;;;;;9.80;5.93;;;;;;;;;;4995733;28;20500;-86
2021/08/29 06:33:17;;;;;;;9.88;6.28;;;;;;;;;;4994453;28;20058;-86
2021/08/29 06:35:49;;;;;;;7.57;5.53;;;;;;;;;;4994463;28;20047;-86
2021/08/29 06:38:27;;;;;;;10.23;7.07;;;;;;;;;;4996279;28;20042;-86
2021/08/29 06:41:00;;;;;;;9.10;6.00;;;;;;;;;;4996371;28;20054;-86
2021/08/29 06:43:27;;;;;;;9.93;6.60;;;;;;;;;;4995963;28;20054;-86
2021/08/29 06:46:03;;;;;;;9.02;6.00;;;;;;;;;;4995703;28;20511;-85
2021/08/29 06:48:40;;;;;;;9.55;6.40;;;;;;;;;;4996303;28;20108;-85
2021/08/29 06:51:20;;;;;;;9.02;6.35;;;;;;;;;;4995799;28;20062;-85
2021/08/29 06:53:48;;;;;;;10.57;7.20;;;;;;;;;;4995897;28;20058;-85
2021/08/29 06:56:24;;;;;;;8.45;6.07;;;;;;;;;;5001918;28;20046;-85
2021/08/29 06:59:16;;;;;;;9.75;6.65;;;;;;;;;;4989394;28;20046;-85
2021/08/29 07:01:49;;;;;;;8.95;6.43;;;;;;;;;;4999516;28;20062;-85
2021/08/29 07:04:22;;;;;;;8.52;5.72;;;;;;;;;;4976998;28;20043;-87
2021/08/29 07:06:57;;;;;;;10.18;7.18;;;;;;;;;;4976555;28;20051;-86
2021/08/29 07:09:24;;;;;;;9.30;6.45;;;;;;;;;;4976966;28;20047;-85
2021/08/29 07:15:27;;;;;;;9.43;6.38;;;;;;;;;;4973164;28;20394;-85
2021/08/29 07:18:01;;;;;;;10.35;6.60;;;;;;;;;;4969940;28;20405;-86
2021/08/29 07:20:44;;;;;;;9.10;5.70;;;;;;;;;;4974890;28;20495;-85
2021/08/29 07:23:34;;;;;;;8.13;5.35;;;;;;;;;;4974688;28;20595;-85
2021/08/29 07:26:24;;;;;;;8.50;5.80;;;;;;;;;;4974471;28;20050;-86
2021/08/29 07:29:20;;;;;;;9.07;6.05;;;;;;;;;;4974758;28;20055;-86
2021/08/29 07:32:02;;;;;;;8.50;5.38;;;;;;;;;;4975171;28;20051;-86
2021/08/29 07:34:37;;;;;;;8.43;5.85;;;;;;;;;;4958798;28;20046;-86
2021/08/29 07:37:17;;;;;;;;;;;;;;;;;;;;;
2021/08/29 07:39:47;;;;;;;7.40;5.32;;;;;;;;;;4972683;28;20054;-86
2021/08/29 07:45:32;;;;;;;7.28;5.57;;;;;;;;;;4969290;28;20780;-86
2021/08/29 07:48:17;;;;;;;7.00;5.05;;;;;;;;;;4977798;28;20059;-86
2021/08/29 07:50:50;;;;;;;5.72;4.30;;;;;;;;;;4998534;28;20070;-85
2021/08/29 07:57:01;;;;;;;7.00;5.75;;;;;;;;;;4973416;28;20507;-86
2021/08/29 07:59:48;;;;;;;7.43;4.40;;;;;;;;;;4975402;28;20551;-86
2021/08/29 08:02:22;;;;;;;8.25;4.60;;;;;;;;;;4981314;28;20476;-86
2021/08/29 08:05:09;;;;;;;6.30;4.90;;;;;;;;;;4994097;28;20050;-86
2021/08/29 08:07:41;;;;;;;6.00;4.55;;;;;;;;;;4994654;28;20054;-86
2021/08/29 08:10:26;;;;;;;6.57;4.88;;;;;;;;;;4996859;28;20050;-86
2021/08/29 08:13:02;;;;;;;5.82;4.32;;;;;;;;;;4988976;28;20126;-86
2021/08/29 08:18:26;;;;;;;;;;;;;;;;;;;;;
2021/08/29 08:21:00;;;;;;;5.72;3.90;;;;;;;;;;4974243;28;20050;-86
2021/08/29 08:23:31;;;;;;;5.30;3.80;;;;;;;;;;4974374;28;20051;-86
2021/08/29 08:26:30;;;;;;;6.78;4.10;;;;;;;;;;4974071;28;20055;-86
2021/08/29 08:28:57;;;;;;;6.88;4.38;;;;;;;;;;4974865;28;20138;-86
2021/08/29 08:31:35;;;;;;;5.90;4.38;;;;;;;;;;4974626;28;20043;-86
2021/08/29 08:34:13;;;;;;;5.70;3.78;;;;;;;;;;4975075;28;20110;-86
2021/08/29 08:36:47;;;;;;;5.32;3.65;;;;;;;;;;4974756;28;20400;-86
2021/08/29 08:39:23;;;;;;;5.22;3.78;;;;;;;;;;4974736;28;20054;-87
2021/08/29 08:41:50;;;;;;;5.80;4.07;;;;;;;;;;4974720;28;20053;-86
2021/08/29 08:44:17;;;;;;;5.65;4.15;;;;;;;;;;4974843;28;20047;-87
2021/08/29 08:46:46;;;;;;;5.60;4.00;;;;;;;;;;4973310;28;20050;-87
2021/08/29 08:49:37;;;;;;;5.15;3.40;;;;;;;;;;4975391;28;20094;-86
2021/08/29 08:52:17;;;;;;;5.30;3.63;;;;;;;;;;4974743;28;20125;-86
2021/08/29 08:55:00;;;;;;;4.43;3.30;;;;;;;;;;4974741;28;20531;-87
2021/08/29 08:57:27;;;;;;;5.22;3.92;;;;;;;;;;4977383;28;20146;-86
2021/08/29 09:00:02;;;;;;;5.30;3.65;;;;;;;;;;4978315;28;20059;-86
2021/08/29 09:02:29;;;;;;;5.00;3.47;;;;;;;;;;4985641;28;20100;-87
2021/08/29 09:04:58;;;;;;;5.07;3.92;;;;;;;;;;4996470;28;20520;-86
2021/08/29 09:07:36;;;;;;;4.80;3.72;;;;;;;;;;4997322;28;20046;-86
2021/08/29 09:10:11;;;;;;;4.97;3.58;;;;;;;;;;4996910;28;20050;-86
2021/08/29 09:13:05;;;;;;;5.10;3.80;;;;;;;;;;4993890;28;20125;-86
2021/08/29 09:15:41;;;;;;;5.47;4.10;;;;;;;;;;4977103;28;20124;-86
2021/08/29 09:18:22;;;;;;;6.68;3.80;;;;;;;;;;4977381;28;20102;-86
2021/08/29 09:21:23;;;;;;;5.72;4.53;;;;;;;;;;4977561;28;20403;-86
2021/08/29 09:24:07;;;;;;;6.35;4.28;;;;;;;;;;4977219;28;20043;-86
2021/08/29 09:26:39;;;;;;;6.80;4.63;;;;;;;;;;4976989;28;20046;-86
2021/08/29 09:29:22;;;;;;;6.28;4.15;;;;;;;;;;4977219;28;20102;-85
2021/08/29 09:31:51;;;;;;;5.57;4.57;;;;;;;;;;4977072;28;20090;-86
2021/08/29 09:34:26;;;;;;;6.40;4.65;;;;;;;;;;4976705;28;20460;-86
2021/08/29 09:37:03;;;;;;;6.55;4.90;;;;;;;;;;4976598;28;20489;-85
2021/08/29 09:39:34;;;;;;;6.78;4.75;;;;;;;;;;4977123;28;20133;-85
2021/08/29 09:42:04;;;;;;;6.82;5.22;;;;;;;;;;4978231;28;20070;-86
2021/08/29 09:44:39;;;;;;;8.13;5.32;;;;;;;;;;4976812;28;20079;-86
2021/08/29 09:47:33;;;;;;;6.45;5.05;;;;;;;;;;4976900;28;20105;-86
2021/08/29 09:50:25;;;;;;;7.63;5.70;;;;;;;;;;4977499;28;20055;-86
2021/08/29 09:53:18;;;;;;;6.45;5.20;;;;;;;;;;4976756;28;20523;-86
2021/08/29 09:56:18;;;;;;;6.70;5.38;;;;;;;;;;4976497;28;20047;-86
2021/08/29 09:58:52;;;;;;;6.93;5.85;;;;;;;;;;4990327;28;20051;-86
2021/08/29 10:01:40;;;;;;;7.10;6.07;;;;;;;;;;4996889;28;20059;-86
2021/08/29 10:04:24;;;;;;;7.13;5.80;;;;;;;;;;4969624;28;20054;-86
2021/08/29 10:07:20;;;;;;;8.23;6.63;;;;;;;;;;4994453;28;20047;-86
2021/08/29 10:09:51;;;;;;;8.10;6.00;;;;;;;;;;4998933;28;20123;-85
2021/08/29 10:12:33;;;;;;;8.73;6.10;;;;;;;;;;5000228;28;20066;-86
2021/08/29 10:15:06;;;;;;;8.35;5.82;;;;;;;;;;5010655;28;20109;-86
2021/08/29 10:17:46;;;;;;;7.25;5.90;;;;;;;;;;5007562;28;20067;-85
2021/08/29 10:20:31;;;;;;;7.63;5.70;;;;;;;;;;5016954;28;20042;-86
2021/08/29 10:23:04;;;;;;;6.43;5.20;;;;;;;;;;5012158;28;20047;-86
2021/08/29 10:25:32;;;;;;;6.65;5.15;;;;;;;;;;5003300;28;20471;-85
2021/08/29 10:31:10;;;;;;;7.40;5.15;;;;;;;;;;4999869;28;20056;-86
2021/08/29 10:33:47;;;;;;;6.18;4.13;;;;;;;;;;5001712;28;20542;-86
2021/08/29 10:36:19;;;;;;;5.88;4.00;;;;;;;;;;5000099;28;20374;-86
2021/08/29 10:39:19;;;;;;;5.97;4.05;;;;;;;;;;5001566;28;20057;-86
2021/08/29 10:41:48;;;;;;;5.32;3.88;;;;;;;;;;5000355;28;20211;-86
2021/08/29 10:44:36;;;;;;;4.90;3.60;;;;;;;;;;4999583;28;20441;-86
2021/08/29 10:47:27;;;;;;;5.00;3.60;;;;;;;;;;4997097;28;20050;-86
2021/08/29 10:49:58;;;;;;;5.35;3.55;;;;;;;;;;4997170;28;20077;-86
2021/08/29 10:53:01;;;;;;;5.68;4.10;;;;;;;;;;4995477;28;20126;-86
2021/08/29 10:58:32;;;;;;;5.45;3.67;;;;;;;;;;4994652;28;20050;-86
2021/08/29 11:01:08;;;;;;;5.00;3.42;;;;;;;;;;4995576;28;20129;-86
2021/08/29 11:07:02;;;;;;;;;;;;;;;;;;;;;
2021/08/29 11:09:59;;;;;;;3.92;2.88;;;;;;;;;;4947664;28;20467;-86
2021/08/29 11:15:41;;;;;;;;;;;;;;;;;;4986475;28;20105;-86
2021/08/29 11:18:25;;;;;;;3.63;2.72;;;;;;;;;;4994943;28;19921;-86
2021/08/29 11:20:58;;;;;;;3.85;2.60;;;;;;;;;;4995949;28;20046;-86
2021/08/29 11:23:51;;;;;;;4.32;2.72;;;;;;;;;;4995893;28;20050;-85
2021/08/29 11:26:54;;;;;;;3.55;2.35;;;;;;;;;;4996895;28;20050;-85
2021/08/29 11:32:50;;;;;;;3.83;2.47;;;;;;;;;;4996580;28;20062;-87
2021/08/29 11:35:28;;;;;;;4.18;2.20;;;;;;;;;;5007291;28;20526;-86
2021/08/29 11:38:38;;;;;;;2.90;1.98;;;;;;;;;;5009649;28;20046;-86
2021/08/29 11:41:25;;;;;;;3.25;2.10;;;;;;;;;;5013038;28;20049;-86
2021/08/29 11:44:01;;;;;;;3.55;2.50;;;;;;;;;;5000038;28;20511;-86
2021/08/29 11:49:16;;;;;;;4.63;2.50;;;;;;;;;;5003647;28;20054;-86
2021/08/29 11:52:02;;;;;;;4.07;2.72;;;;;;;;;;5015550;28;20042;-86
2021/08/29 11:54:35;;;;;;;4.00;2.78;;;;;;;;;;5014947;28;20042;-86
2021/08/29 11:57:11;;;;;;;4.72;2.90;;;;;;;;;;5014598;28;20046;-86
2021/08/29 11:59:44;;;;;;;5.82;4.70;;;;;;;;;;5014425;28;20524;-86
2021/08/29 12:02:14;;;;;;;6.38;4.05;;;;;;;;;;5014766;28;20049;-86
2021/08/29 12:04:54;;;;;;;5.30;3.35;;;;;;;;;;5015720;28;20054;-86
2021/08/29 12:07:37;;;;;;;3.53;2.50;;;;;;;;;;5015506;28;20384;-86
2021/08/29 12:10:14;;;;;;;3.70;2.42;;;;;;;;;;5014449;28;20054;-86
2021/08/29 12:12:47;;;;;;;3.72;2.33;;;;;;;;;;5010033;28;20410;-86
2021/08/29 12:15:28;;;;;;;4.03;2.35;;;;;;;;;;4994016;28;20133;-86
2021/08/29 12:18:06;;;;;;;4.18;2.53;;;;;;;;;;4994041;28;20419;-87
2021/08/29 12:20:40;;;;;;;3.40;2.42;;;;;;;;;;4989926;28;20046;-87
2021/08/29 12:23:21;;;;;;;3.60;2.30;;;;;;;;;;4993831;28;20046;-87
2021/08/29 12:26:10;;;;;;;3.80;2.42;;;;;;;;;;4993064;28;20290;-85
2021/08/29 12:29:06;;;;;;;4.27;2.47;;;;;;;;;;4993812;28;20050;-84
2021/08/29 12:32:05;;;;;;;3.50;2.30;;;;;;;;;;4996200;28;20133;-86
2021/08/29 12:35:00;;;;;;;3.33;2.10;;;;;;;;;;4977549;28;20065;-84
2021/08/29 12:37:33;;;;;;;3.85;2.15;;;;;;;;;;4997918;28;20050;-86
2021/08/29 12:42:58;;;;;;;3.20;2.05;;;;;;;;;;5015725;28;20052;-85
2021/08/29 12:45:25;;;;;;;3.92;2.08;;;;;;;;;;5017296;28;20046;-88
2021/08/29 12:47:55;;;;;;;3.55;2.40;;;;;;;;;;5018169;28;20046;-86
2021/08/29 12:50:27;;;;;;;4.03;2.28;;;;;;;;;;5017443;28;20042;-86
2021/08/29 12:53:20;;;;;;;4.15;2.50;;;;;;;;;;5017826;28;20054;-89
2021/08/29 12:56:03;;;;;;;3.17;1.80;;;;;;;;;;5017576;28;20069;-87
2021/08/29 12:58:41;;;;;;;3.97;2.17;;;;;;;;;;5012578;28;20050;-86
2021/08/29 13:01:14;;;;;;;2.50;1.80;;;;;;;;;;4998342;28;20050;-86
2021/08/29 13:03:57;;;;;;;3.22;1.80;;;;;;;;;;5016307;28;20042;-86
2021/08/29 13:06:47;;;;;;;2.85;1.92;;;;;;;;;;5017588;28;20104;-86
2021/08/29 13:09:15;;;;;;;2.63;1.80;;;;;;;;;;5018539;28;20120;-86
2021/08/29 13:12:00;;;;;;;;;;;;;;;;;;;;;
2021/08/29 13:14:47;;;;;;;3.25;1.90;;;;;;;;;;4994187;28;20050;-86
2021/08/29 13:17:29;;;;;;;3.10;2.00;;;;;;;;;;5005183;28;20050;-86
2021/08/29 13:20:12;;;;;;;3.67;1.60;;;;;;;;;;5016190;28;20058;-87
2021/08/29 13:22:45;;;;;;;3.05;1.85;;;;;;;;;;5013615;28;20058;-84
2021/08/29 13:25:28;;;;;;;2.92;1.88;;;;;;;;;;5012654;28;20414;-86
2021/08/29 13:31:11;;;;;;;2.95;1.90;;;;;;;;;;4957276;29;20043;-85
2021/08/29 13:33:42;;;;;;;2.45;1.60;;;;;;;;;;4941441;29;20051;-87
2021/08/29 13:36:36;;;;;;;3.72;1.85;;;;;;;;;;4993596;28;20050;-85
2021/08/29 13:39:12;;;;;;;2.83;1.90;;;;;;;;;;4983734;28;20141;-85
2021/08/29 13:41:43;;;;;;;3.03;1.92;;;;;;;;;;4997766;28;20042;-85
2021/08/29 13:44:35;;;;;;;;;;;;;;;;;;;;;
2021/08/29 13:47:04;;;;;;;3.70;1.90;;;;;;;;;;4996318;28;20056;-86
2021/08/29 13:50:04;;;;;;;3.17;2.00;;;;;;;;;;4996528;28;20073;-85
2021/08/29 13:52:38;;;;;;;7.40;6.25;;;;;;;;;;4973543;28;20054;-85
2021/08/29 13:55:18;;;;;;;4.65;3.10;;;;;;;;;;4996544;28;20050;-85
2021/08/29 14:00:46;;;;;;;2.67;1.50;;;;;;;;;;4995203;28;20050;-86
2021/08/29 14:03:20;;;;;;;1.45;0.80;;;;;;;;;;5010006;28;20046;-86
2021/08/29 14:06:00;;;;;;;2.30;1.00;;;;;;;;;;5015113;28;20054;-87
2021/08/29 14:08:36;;;;;;;1.25;0.93;;;;;;;;;;5016675;28;20045;-86
2021/08/29 14:13:55;;;;;;;1.30;0.90;;;;;;;;;;5016075;28;20062;-86
2021/08/29 14:16:24;;;;;;;1.30;0.80;;;;;;;;;;5018885;28;20451;-86
2021/08/29 14:18:53;;;;;;;2.20;1.20;;;;;;;;;;5017033;28;20046;-86
2021/08/29 14:24:21;;;;;;;2.38;1.17;;;;;;;;;;5013800;28;20046;-86
2021/08/29 14:26:54;;;;;;;2.22;1.48;;;;;;;;;;5015633;28;20507;-87
2021/08/29 14:29:25;;;;;;;1.98;1.20;;;;;;;;;;5016080;28;20074;-87
2021/08/29 14:32:08;;;;;;;2.03;1.20;;;;;;;;;;5015134;28;20120;-87
2021/08/29 14:37:50;;;;;;;2.33;0.90;;;;;;;;;;4979772;28;20058;-86
2021/08/29 14:40:31;;;;;;;;;;;;;;;;;;;;;
2021/08/29 14:43:10;;;;;;;2.63;1.15;;;;;;;;;;5015984;28;20049;-86
2021/08/29 14:45:41;;;;;;;1.67;1.15;;;;;;;;;;5015412;28;20104;-87
2021/08/29 14:50:50;;;;;;;1.58;1.08;;;;;;;;;;4999901;28;20554;-86
2021/08/29 14:53:47;;;;;;;2.80;1.20;;;;;;;;;;5014671;28;20042;-87
2021/08/29 14:56:20;;;;;;;1.95;1.00;;;;;;;;;;5015509;28;20069;-86
2021/08/29 15:01:48;;;;;;;1.73;1.10;;;;;;;;;;5012991;28;20046;-86
2021/08/29 15:04:18;;;;;;;1.85;1.00;;;;;;;;;;5017399;28;20046;-86
2021/08/29 15:07:04;;;;;;;2.35;0.90;;;;;;;;;;5035275;28;20070;-86
2021/08/29 15:09:48;;;;;;;1.92;1.10;;;;;;;;;;5021655;28;20052;-86
2021/08/29 15:12:21;;;;;;;2.47;1.38;;;;;;;;;;5016034;28;20076;-86
2021/08/29 15:14:57;;;;;;;2.20;1.15;;;;;;;;;;4995618;28;20050;-86
2021/08/29 15:17:35;;;;;;;1.90;1.20;;;;;;;;;;4998706;28;20492;-85
2021/08/29 15:20:05;;;;;;;2.00;1.30;;;;;;;;;;4995944;28;20419;-86
2021/08/29 15:22:32;;;;;;;2.10;1.23;;;;;;;;;;4995842;28;20053;-86
2021/08/29 15:25:07;;;;;;;1.77;1.20;;;;;;;;;;4995300;28;20097;-86
2021/08/29 15:27:39;;;;;;;2.70;1.52;;;;;;;;;;4995784;28;20496;-86
2021/08/29 15:30:07;;;;;;;1.95;1.02;;;;;;;;;;4996206;28;20555;-86
2021/08/29 15:32:39;;;;;;;1.95;1.08;;;;;;;;;;4995867;28;20060;-86
2021/08/29 15:35:13;;;;;;;2.55;1.10;;;;;;;;;;4994984;28;20050;-86
2021/08/29 15:37:40;;;;;;;1.88;1.02;;;;;;;;;;4995862;28;20046;-86
2021/08/29 15:40:10;;;;;;;2.15;1.02;;;;;;;;;;5006567;28;20415;-86
2021/08/29 15:45:37;;;;;;;1.33;0.80;;;;;;;;;;5012516;28;20042;-85
2021/08/29 15:48:16;;;;;;;1.98;1.02;;;;;;;;;;5012633;28;20085;-86
2021/08/29 15:50:43;;;;;;;1.88;1.00;;;;;;;;;;5010738;28;20050;-86
2021/08/29 15:53:18;;;;;;;1.73;1.00;;;;;;;;;;5008127;28;20142;-86
2021/08/29 15:56:09;;;;;;;2.35;1.33;;;;;;;;;;5008565;28;20118;-85
2021/08/29 15:58:41;;;;;;;1.90;1.05;;;;;;;;;;5011617;28;20073;-86
2021/08/29 16:01:08;;;;;;;2.75;1.40;;;;;;;;;;5014637;28;20038;-85
2021/08/29 16:03:36;;;;;;;2.53;1.13;;;;;;;;;;5016065;28;20078;-85
2021/08/29 16:06:05;;;;;;;1.90;1.00;;;;;;;;;;5011389;28;20141;-86
2021/08/29 16:08:36;;;;;;;1.90;1.10;;;;;;;;;;5011949;28;20058;-85
2021/08/29 16:11:05;;;;;;;1.60;1.00;;;;;;;;;;5013011;28;20061;-86
2021/08/29 16:13:39;;;;;;;1.52;0.90;;;;;;;;;;5010854;28;20065;-85
2021/08/29 16:16:14;;;;;;;2.53;1.20;;;;;;;;;;5012401;28;20056;-86
2021/08/29 16:18:48;;;;;;;1.27;0.80;;;;;;;;;;5012492;28;20052;-86
2021/08/29 16:21:32;;;;;;;3.90;2.20;;;;;;;;;;5012866;28;20066;-86
2021/08/29 16:23:59;;;;;;;3.35;2.30;;;;;;;;;;5011430;28;20239;-86
2021/08/29 16:26:47;;;;;;;2.03;1.20;;;;;;;;;;5009629;28;20106;-86
2021/08/29 16:29:14;;;;;;;1.88;0.88;;;;;;;;;;5010363;28;20074;-85
2021/08/29 16:31:55;;;;;;;1.20;0.90;;;;;;;;;;5010238;28;20054;-86
2021/08/29 16:34:45;;;;;;;2.17;1.10;;;;;;;;;;5004890;28;20061;-87
2021/08/29 16:40:41;;;;;;;2.00;1.02;;;;;;;;;;4931899;29;20056;-87
2021/08/29 16:46:10;;;;;;;2.25;1.15;;;;;;;;;;5012071;28;20125;-87
2021/08/29 16:49:07;;;;;;;1.77;0.82;;;;;;;;;;5007512;28;20060;-87
2021/08/29 16:51:34;;;;;;;1.70;0.80;;;;;;;;;;5012816;28;20431;-86
2021/08/29 16:54:09;;;;;;;1.17;0.65;;;;;;;;;;5009695;28;20556;-87
2021/08/29 16:56:56;;;;;;;1.52;0.80;;;;;;;;;;5010174;28;20054;-86
2021/08/29 17:00:08;;;;;;;1.58;1.02;;;;;;;;;;5011759;28;20047;-88
2021/08/29 17:02:57;;;;;;;0.80;0.63;;;;;;;;;;5009509;28;20046;-86
2021/08/29 17:05:36;;;;;;;1.52;0.70;;;;;;;;;;5009380;28;20050;-86